Time;durP1;ratioP1;P1;durP2;ratioP2;P2;SDS_P1;SDS_P2;PMS_P1;PMS_P2;Temp;Humidity;BMP_temperature;BMP_pressure;BME280_temperature;BME280_humidity;BME280_pressure;Samples;Min_cycle;Max_cycle;Signal;HPM_P1;HPM_P2
2023/02/08 00:01:37;;;;;;;14.10;5.97;;;0.20;99.90;;;;;;6112712;23;20432;-69
2023/02/08 00:04:04;;;;;;;16.87;8.70;;;0.30;99.90;;;;;;6117607;23;20482;-69
2023/02/08 00:06:31;;;;;;;10.03;6.70;;;0.30;99.90;;;;;;6118361;23;20477;-68
2023/02/08 00:09:00;;;;;;;10.20;5.83;;;0.30;99.90;;;;;;6116191;23;20424;-68
2023/02/08 00:11:28;;;;;;;15.03;7.50;;;0.30;99.90;;;;;;6114433;23;20488;-68
2023/02/08 00:13:55;;;;;;;9.90;6.30;;;0.20;99.90;;;;;;6116236;23;20405;-69
2023/02/08 00:16:22;;;;;;;7.47;6.23;;;0.10;99.90;;;;;;6115890;23;20396;-69
2023/02/08 00:18:49;;;;;;;12.90;5.57;;;0.10;99.90;;;;;;6114314;23;20391;-69
2023/02/08 00:21:18;;;;;;;7.30;5.50;;;0.10;99.90;;;;;;6115283;23;20433;-70
2023/02/08 00:23:46;;;;;;;15.47;6.13;;;0.20;99.90;;;;;;6118051;23;20406;-69
2023/02/08 00:26:13;;;;;;;9.50;6.57;;;0.20;99.90;;;;;;6115514;23;20475;-69
2023/02/08 00:28:42;;;;;;;11.27;6.33;;;0.20;99.90;;;;;;6118912;23;20416;-69
2023/02/08 00:31:09;;;;;;;10.97;7.20;;;0.10;99.90;;;;;;6113281;23;20437;-68
2023/02/08 00:33:36;;;;;;;7.57;5.50;;;0.00;99.90;;;;;;6117928;23;20757;-70
2023/02/08 00:36:06;;;;;;;14.57;7.57;;;0.00;99.90;;;;;;6116451;23;20809;-70
2023/02/08 00:38:33;;;;;;;10.80;5.07;;;0.10;99.90;;;;;;6114315;23;20397;-70
2023/02/08 00:41:00;;;;;;;16.27;7.00;;;0.00;99.90;;;;;;6116348;23;20494;-69
2023/02/08 00:43:27;;;;;;;11.60;5.10;;;0.00;99.90;;;;;;6114643;23;20495;-70
2023/02/08 00:45:57;;;;;;;7.50;5.60;;;0.10;99.90;;;;;;6117027;23;20406;-70
2023/02/08 00:48:24;;;;;;;18.03;9.83;;;0.10;99.90;;;;;;6116689;23;20482;-69
2023/02/08 00:50:59;;;;;;;11.13;6.33;;;0.00;99.90;;;;;;6117261;23;21154;-70
2023/02/08 00:53:26;;;;;;;18.30;7.40;;;0.00;99.90;;;;;;6113300;23;20504;-70
2023/02/08 00:55:54;;;;;;;10.70;5.43;;;-0.10;99.90;;;;;;6119761;23;20447;-70
2023/02/08 00:58:21;;;;;;;8.90;6.03;;;-0.10;99.90;;;;;;6124089;23;20473;-69
2023/02/08 01:00:51;;;;;;;5.93;3.53;;;-0.20;99.90;;;;;;6123481;23;20432;-70
2023/02/08 01:03:20;;;;;;;17.60;7.00;;;-0.30;99.90;;;;;;6119880;23;20391;-69
2023/02/08 01:05:47;;;;;;;8.43;5.80;;;-0.40;99.90;;;;;;6115561;23;20910;-69
2023/02/08 01:08:14;;;;;;;10.73;5.70;;;-0.40;99.90;;;;;;6126527;23;20489;-70
2023/02/08 01:10:41;;;;;;;8.23;5.50;;;-0.40;99.90;;;;;;6119867;23;20387;-69
2023/02/08 01:13:08;;;;;;;7.57;4.40;;;-0.50;99.90;;;;;;6115044;23;20756;-69
2023/02/08 01:15:35;;;;;;;6.90;4.60;;;-0.40;99.90;;;;;;6117935;23;20427;-69
2023/02/08 01:18:02;;;;;;;15.33;7.60;;;-0.30;99.90;;;;;;6122518;23;20507;-69
2023/02/08 01:20:34;;;;;;;11.00;5.33;;;-0.30;99.90;;;;;;6121332;23;20419;-70
2023/02/08 01:23:01;;;;;;;12.90;4.10;;;-0.30;99.90;;;;;;6121184;23;20425;-70
2023/02/08 01:25:28;;;;;;;9.90;5.27;;;-0.30;99.90;;;;;;6089412;23;20495;-70
2023/02/08 01:27:56;;;;;;;11.50;6.20;;;-0.20;99.90;;;;;;6121289;23;20447;-70
2023/02/08 01:30:23;;;;;;;6.13;4.87;;;-0.10;99.90;;;;;;6119066;23;20390;-70
2023/02/08 01:32:50;;;;;;;9.53;6.53;;;0.00;99.90;;;;;;6119834;23;20971;-70
2023/02/08 01:35:17;;;;;;;14.03;6.47;;;-0.10;99.90;;;;;;6118667;23;20483;-70
2023/02/08 01:37:45;;;;;;;12.00;5.73;;;-0.20;99.90;;;;;;6120971;23;20444;-69
2023/02/08 01:40:12;;;;;;;9.90;4.90;;;-0.20;99.90;;;;;;6119396;23;20763;-70
2023/02/08 01:42:39;;;;;;;10.87;7.50;;;-0.30;99.90;;;;;;6114261;23;20435;-70
2023/02/08 01:45:28;;;;;;;11.80;6.27;;;-0.50;99.90;;;;;;6115617;23;20404;-70
2023/02/08 01:48:02;;;;;;;9.27;5.53;;;-0.50;99.90;;;;;;6117755;23;20394;-70
2023/02/08 01:50:33;;;;;;;8.30;6.07;;;-0.60;99.90;;;;;;6119326;23;20408;-70
2023/02/08 01:53:02;;;;;;;10.10;5.53;;;-0.50;99.90;;;;;;6114581;23;20479;-70
2023/02/08 01:55:33;;;;;;;9.90;4.23;;;-0.50;99.90;;;;;;6113594;23;20477;-69
2023/02/08 01:58:03;;;;;;;9.00;5.97;;;-0.40;99.90;;;;;;6117353;23;20409;-70
2023/02/08 02:00:31;;;;;;;8.80;5.10;;;-0.50;99.90;;;;;;6111376;23;20419;-70
2023/02/08 02:03:00;;;;;;;10.27;5.93;;;-0.60;99.90;;;;;;6112709;23;20458;-70
2023/02/08 02:05:32;;;;;;;14.80;7.87;;;-0.50;99.90;;;;;;6117889;23;20436;-70
2023/02/08 02:08:01;;;;;;;8.13;6.97;;;-0.30;99.90;;;;;;6112756;23;20429;-69
2023/02/08 02:10:31;;;;;;;6.57;4.63;;;-0.40;99.90;;;;;;6117583;23;20838;-70
2023/02/08 02:13:03;;;;;;;14.20;6.93;;;-0.50;99.90;;;;;;6110589;23;20912;-69
2023/02/08 02:15:30;;;;;;;8.77;7.90;;;-0.50;99.90;;;;;;6115426;23;20435;-70
2023/02/08 02:17:59;;;;;;;8.67;6.37;;;-0.50;99.90;;;;;;6117378;23;20440;-69
2023/02/08 02:20:39;;;;;;;11.70;5.10;;;-0.60;99.90;;;;;;6088142;23;20460;-70
2023/02/08 02:23:31;;;;;;;16.63;7.13;;;-0.70;99.90;;;;;;6113627;23;20387;-68
2023/02/08 02:26:46;;;;;;;15.70;6.00;;;-0.70;99.90;;;;;;6118121;23;20447;-70
2023/02/08 02:29:59;;;;;;;5.97;4.43;;;-0.70;99.90;;;;;;6113999;23;20851;-70
2023/02/08 02:32:47;;;;;;;11.73;5.50;;;-0.60;99.90;;;;;;6076639;23;20491;-69
2023/02/08 02:35:19;;;;;;;18.23;6.87;;;-0.50;99.90;;;;;;6117341;23;20467;-70
2023/02/08 02:37:54;;;;;;;7.60;5.80;;;-0.40;99.90;;;;;;6118093;23;20748;-70
2023/02/08 02:40:27;;;;;;;10.73;5.73;;;-0.30;99.90;;;;;;6117337;23;20560;-69
2023/02/08 02:45:54;;;;;;;11.33;7.10;;;-0.40;99.90;;;;;;6111449;23;20894;-68
2023/02/08 02:48:30;;;;;;;10.93;5.70;;;-0.50;99.90;;;;;;6113652;23;20483;-71
2023/02/08 02:51:00;;;;;;;16.93;6.80;;;-0.50;99.90;;;;;;6116717;23;20432;-70
2023/02/08 02:53:34;;;;;;;5.10;4.43;;;-0.60;99.90;;;;;;6117277;23;20409;-70
2023/02/08 02:56:07;;;;;;;11.30;5.80;;;-0.60;99.90;;;;;;6120740;23;20471;-69
2023/02/08 02:58:36;;;;;;;9.37;6.13;;;-0.60;99.90;;;;;;6121150;23;20950;-70
2023/02/08 03:01:03;;;;;;;9.23;7.03;;;-0.50;99.90;;;;;;6118525;23;20435;-70
2023/02/08 03:03:34;;;;;;;9.40;7.10;;;-0.40;99.90;;;;;;6120666;23;20411;-70
2023/02/08 03:06:04;;;;;;;11.97;5.67;;;-0.50;99.90;;;;;;6118808;23;20396;-70
2023/02/08 03:08:57;;;;;;;17.33;8.97;;;-0.50;99.90;;;;;;6120452;23;20713;-70
2023/02/08 03:11:27;;;;;;;5.43;5.00;;;-0.60;99.90;;;;;;6116220;23;20428;-70
2023/02/08 03:14:19;;;;;;;6.63;5.60;;;-0.50;99.90;;;;;;6115852;23;20966;-70
2023/02/08 03:17:02;;;;;;;9.10;6.27;;;-0.50;99.90;;;;;;6112843;23;20800;-70
2023/02/08 03:19:36;;;;;;;6.70;4.53;;;-0.50;99.90;;;;;;6116101;23;20400;-70
2023/02/08 03:22:11;;;;;;;9.50;6.10;;;-0.50;99.90;;;;;;6118778;23;20465;-70
2023/02/08 03:24:45;;;;;;;17.63;7.33;;;-0.40;99.90;;;;;;6117013;23;20389;-68
2023/02/08 03:27:19;;;;;;;7.77;5.50;;;-0.50;99.90;;;;;;6116129;23;20368;-69
2023/02/08 03:29:55;;;;;;;12.43;8.30;;;-0.70;99.90;;;;;;6115847;23;20401;-68
2023/02/08 03:32:27;;;;;;;7.23;4.67;;;-0.70;99.90;;;;;;6118266;23;20513;-69
2023/02/08 03:34:59;;;;;;;10.47;6.30;;;-0.50;99.90;;;;;;6119724;23;20394;-69
2023/02/08 03:37:30;;;;;;;5.83;4.30;;;-0.50;99.90;;;;;;6118767;23;20353;-68
2023/02/08 03:40:02;;;;;;;7.27;5.07;;;-0.40;99.90;;;;;;6116199;23;20444;-70
2023/02/08 03:42:32;;;;;;;12.63;6.40;;;-0.50;99.90;;;;;;6115549;23;20441;-69
2023/02/08 03:45:02;;;;;;;10.90;5.47;;;-0.50;99.90;;;;;;6115893;23;20784;-70
2023/02/08 03:47:34;;;;;;;12.60;5.87;;;-0.50;99.90;;;;;;6115906;23;20554;-69
2023/02/08 03:50:06;;;;;;;6.77;6.13;;;-0.60;99.90;;;;;;6115996;23;20396;-70
2023/02/08 03:52:34;;;;;;;8.33;4.93;;;-0.60;99.90;;;;;;6109512;23;20403;-70
2023/02/08 03:55:05;;;;;;;6.50;5.90;;;-0.50;99.90;;;;;;6111770;23;20490;-70
2023/02/08 03:57:36;;;;;;;11.33;6.57;;;-0.50;99.90;;;;;;6116078;23;20768;-69
2023/02/08 04:00:07;;;;;;;8.60;6.17;;;-0.50;99.90;;;;;;6108893;23;20388;-68
2023/02/08 04:02:40;;;;;;;9.37;6.47;;;-0.40;99.90;;;;;;6112038;23;20442;-69
2023/02/08 04:05:11;;;;;;;17.27;8.10;;;-0.50;99.90;;;;;;6114900;23;20397;-70
2023/02/08 04:07:38;;;;;;;15.90;7.97;;;-0.60;99.90;;;;;;6113292;23;20468;-68
2023/02/08 04:10:05;;;;;;;7.37;5.63;;;-0.70;99.90;;;;;;6115365;23;20397;-70
2023/02/08 04:12:32;;;;;;;8.33;5.93;;;-0.70;99.90;;;;;;6113776;23;20793;-69
2023/02/08 04:14:59;;;;;;;6.67;5.60;;;-0.70;99.90;;;;;;6108941;23;20399;-70
2023/02/08 04:17:26;;;;;;;6.70;4.33;;;-0.70;99.90;;;;;;6111573;23;20728;-70
2023/02/08 04:19:53;;;;;;;18.47;7.37;;;-0.80;99.90;;;;;;6116791;23;20473;-70
2023/02/08 04:22:21;;;;;;;12.80;6.37;;;-0.70;99.90;;;;;;6117264;23;20493;-70
2023/02/08 04:24:49;;;;;;;11.83;8.00;;;-0.90;99.90;;;;;;6112437;23;20420;-69
2023/02/08 04:27:16;;;;;;;7.57;6.27;;;-0.80;99.90;;;;;;6115042;23;20981;-70
2023/02/08 04:29:42;;;;;;;6.33;4.57;;;-0.80;99.90;;;;;;6115932;23;20924;-71
2023/02/08 04:32:10;;;;;;;12.27;7.20;;;-0.80;99.90;;;;;;6112746;23;20843;-70
2023/02/08 04:34:38;;;;;;;12.13;7.13;;;-0.90;99.90;;;;;;6110581;23;20505;-70
2023/02/08 04:37:05;;;;;;;7.67;4.90;;;-1.00;99.90;;;;;;6109922;23;20479;-71
2023/02/08 04:39:33;;;;;;;17.97;7.70;;;-0.90;99.90;;;;;;6113122;23;20470;-70
2023/02/08 04:42:00;;;;;;;20.90;6.93;;;-1.00;99.90;;;;;;6115072;23;20521;-70
2023/02/08 04:44:29;;;;;;;7.43;5.63;;;-1.00;99.90;;;;;;6116631;23;20481;-69
2023/02/08 04:46:56;;;;;;;9.10;4.73;;;-1.00;99.90;;;;;;6117855;23;20500;-71
2023/02/08 04:49:23;;;;;;;10.40;5.50;;;-1.10;99.90;;;;;;6118752;23;20411;-73
2023/02/08 04:51:50;;;;;;;10.60;5.83;;;-1.10;99.90;;;;;;6119446;23;20984;-71
2023/02/08 04:54:17;;;;;;;9.73;4.63;;;-1.20;99.90;;;;;;6123443;23;20764;-71
2023/02/08 04:56:46;;;;;;;16.83;6.63;;;-1.20;99.90;;;;;;6128376;23;20501;-70
2023/02/08 04:59:13;;;;;;;7.67;7.07;;;-1.30;99.90;;;;;;6125569;23;20966;-71
2023/02/08 05:01:40;;;;;;;8.93;5.27;;;-1.40;99.90;;;;;;6119540;23;20491;-71
2023/02/08 05:04:07;;;;;;;19.93;6.20;;;-1.50;99.90;;;;;;6122076;23;20454;-69
2023/02/08 05:06:34;;;;;;;7.63;5.00;;;-1.50;99.90;;;;;;6118858;23;20386;-68
2023/02/08 05:09:01;;;;;;;10.93;6.33;;;-1.40;99.90;;;;;;6109713;23;20834;-70
2023/02/08 05:11:28;;;;;;;10.60;6.30;;;-1.30;99.90;;;;;;6114763;23;20432;-69
2023/02/08 05:13:56;;;;;;;8.07;4.37;;;-1.40;99.90;;;;;;6112923;23;20494;-70
2023/02/08 05:16:24;;;;;;;8.53;6.47;;;-1.50;99.90;;;;;;6114185;23;20532;-70
2023/02/08 05:18:51;;;;;;;10.80;5.43;;;-1.60;99.90;;;;;;6115965;23;20478;-70
2023/02/08 05:21:18;;;;;;;12.43;6.30;;;-1.50;99.90;;;;;;6115038;23;20432;-70
2023/02/08 05:23:44;;;;;;;14.13;6.20;;;-1.40;99.90;;;;;;6115928;23;20413;-69
2023/02/08 05:26:12;;;;;;;17.83;4.97;;;-1.40;99.90;;;;;;6118508;23;20454;-70
2023/02/08 05:28:39;;;;;;;15.60;6.47;;;-1.30;99.90;;;;;;6114670;23;20502;-70
2023/02/08 05:31:17;;;;;;;6.47;5.73;;;-1.30;99.90;;;;;;6116546;23;20510;-68
2023/02/08 05:33:44;;;;;;;4.17;3.13;;;-1.30;99.90;;;;;;6117908;23;20434;-69
2023/02/08 05:36:15;;;;;;;11.27;5.33;;;-1.40;99.90;;;;;;6118923;23;20451;-69
2023/02/08 05:38:42;;;;;;;15.03;7.27;;;-1.50;99.90;;;;;;6115290;23;20415;-69
2023/02/08 05:41:09;;;;;;;17.20;6.40;;;-1.40;99.90;;;;;;6115585;23;20546;-70
2023/02/08 05:43:36;;;;;;;9.30;5.43;;;-1.40;99.90;;;;;;6117635;23;20482;-69
2023/02/08 05:46:04;;;;;;;13.27;6.63;;;-1.40;99.90;;;;;;6114476;23;20488;-70
2023/02/08 05:48:35;;;;;;;5.97;4.77;;;-1.40;99.90;;;;;;6117127;23;20495;-69
2023/02/08 05:51:02;;;;;;;14.50;4.63;;;-1.40;99.90;;;;;;6115596;23;20432;-70
2023/02/08 05:53:30;;;;;;;11.00;6.77;;;-1.40;99.90;;;;;;6118650;23;20412;-70
2023/02/08 05:55:58;;;;;;;8.87;7.77;;;-1.40;99.90;;;;;;6117402;23;20507;-69
2023/02/08 05:58:25;;;;;;;7.77;5.93;;;-1.40;99.90;;;;;;6117415;23;20958;-70
2023/02/08 06:00:53;;;;;;;4.70;3.90;;;-1.50;99.90;;;;;;6113577;23;20674;-70
2023/02/08 06:03:20;;;;;;;12.87;6.43;;;-1.60;99.90;;;;;;6115647;23;20417;-69
2023/02/08 06:05:48;;;;;;;11.27;6.13;;;-1.60;99.90;;;;;;6115789;23;20384;-70
2023/02/08 06:08:15;;;;;;;8.87;5.07;;;-1.60;99.90;;;;;;6117365;23;20393;-69
2023/02/08 06:10:44;;;;;;;5.53;4.27;;;-1.70;99.90;;;;;;6115589;23;20593;-70
2023/02/08 06:13:13;;;;;;;9.33;6.23;;;-1.70;99.90;;;;;;6115443;23;20418;-69
2023/02/08 06:15:40;;;;;;;7.37;5.93;;;-1.80;99.90;;;;;;6117660;23;20933;-70
2023/02/08 06:18:08;;;;;;;5.57;4.87;;;-1.70;99.90;;;;;;6117787;23;20505;-69
2023/02/08 06:20:35;;;;;;;11.17;8.17;;;-1.60;99.90;;;;;;6117357;23;20397;-70
2023/02/08 06:23:03;;;;;;;11.00;5.50;;;-1.60;99.90;;;;;;6114787;23;20800;-69
2023/02/08 06:25:31;;;;;;;6.83;4.60;;;-1.50;99.90;;;;;;6112578;23;20446;-69
2023/02/08 06:27:58;;;;;;;9.67;6.10;;;-1.50;99.90;;;;;;6119779;23;20495;-70
2023/02/08 06:30:25;;;;;;;8.80;6.50;;;-1.50;99.90;;;;;;6118136;23;20767;-69
2023/02/08 06:32:52;;;;;;;10.80;7.30;;;-1.60;99.90;;;;;;6120515;23;20496;-70
2023/02/08 06:35:19;;;;;;;12.80;6.70;;;-1.80;99.90;;;;;;6119139;23;20915;-69
2023/02/08 06:37:48;;;;;;;12.13;6.87;;;-1.80;99.90;;;;;;6117955;23;20446;-69
2023/02/08 06:40:19;;;;;;;12.10;6.83;;;-1.80;99.90;;;;;;6115909;23;20402;-71
2023/02/08 06:42:47;;;;;;;12.53;7.70;;;-1.70;99.90;;;;;;6118128;23;20432;-71
2023/02/08 06:45:14;;;;;;;11.20;7.37;;;-1.70;99.90;;;;;;6115278;23;20555;-69
2023/02/08 06:47:41;;;;;;;10.90;6.37;;;-1.70;99.90;;;;;;6118033;23;20464;-69
2023/02/08 06:50:10;;;;;;;11.47;4.83;;;-1.70;99.90;;;;;;6114400;23;20492;-69
2023/02/08 06:52:38;;;;;;;22.70;7.00;;;-1.80;99.90;;;;;;6117500;23;20420;-69
2023/02/08 06:55:06;;;;;;;24.07;6.33;;;-1.80;99.90;;;;;;6118932;23;20984;-70
2023/02/08 06:57:35;;;;;;;17.43;9.23;;;-1.80;99.90;;;;;;6118001;23;20418;-71
2023/02/08 07:00:02;;;;;;;16.60;7.30;;;-1.70;99.90;;;;;;6120345;23;20901;-69
2023/02/08 07:02:29;;;;;;;5.43;4.03;;;-1.60;99.90;;;;;;6122427;23;20449;-69
2023/02/08 07:04:56;;;;;;;15.93;6.97;;;-1.70;99.90;;;;;;6118464;23;20461;-69
2023/02/08 07:07:25;;;;;;;12.10;7.80;;;-1.70;99.90;;;;;;6120371;23;20467;-71
2023/02/08 07:09:52;;;;;;;13.77;7.50;;;-1.70;99.90;;;;;;6123676;23;20400;-70
2023/02/08 07:12:20;;;;;;;9.30;6.17;;;-1.70;99.90;;;;;;6120519;23;20414;-70
2023/02/08 07:14:48;;;;;;;12.73;7.87;;;-1.50;99.90;;;;;;6120026;23;20491;-70
2023/02/08 07:17:16;;;;;;;13.23;10.83;;;-1.60;99.90;;;;;;6120992;23;20444;-70
2023/02/08 07:19:43;;;;;;;11.93;7.50;;;-1.60;99.90;;;;;;6120691;23;20448;-69
2023/02/08 07:22:10;;;;;;;17.13;9.70;;;-1.50;99.90;;;;;;6119621;23;20805;-70
2023/02/08 07:24:38;;;;;;;12.90;8.90;;;-1.40;99.90;;;;;;6120981;23;20428;-71
2023/02/08 07:27:07;;;;;;;29.20;6.73;;;-1.50;99.90;;;;;;6122944;23;20417;-70
2023/02/08 07:29:34;;;;;;;10.97;8.70;;;-1.20;99.90;;;;;;6127627;23;20387;-69
2023/02/08 07:32:05;;;;;;;6.93;5.83;;;-1.00;99.90;;;;;;6123807;23;20756;-70
2023/02/08 07:34:34;;;;;;;9.77;5.40;;;-0.80;99.90;;;;;;6121555;23;20414;-70
2023/02/08 07:37:04;;;;;;;6.73;5.43;;;-0.60;99.90;;;;;;6118726;23;20531;-70
2023/02/08 07:39:32;;;;;;;14.00;7.30;;;-0.50;99.90;;;;;;6121047;23;20484;-70
2023/02/08 07:41:59;;;;;;;11.17;4.80;;;-0.30;99.90;;;;;;6121436;23;20414;-70
2023/02/08 07:44:26;;;;;;;9.27;6.77;;;-0.30;99.90;;;;;;6120534;23;20506;-71
2023/02/08 07:46:54;;;;;;;12.10;7.63;;;-0.40;99.90;;;;;;6121290;23;20451;-70
2023/02/08 07:49:23;;;;;;;11.13;6.87;;;-0.40;99.90;;;;;;6122722;23;20437;-70
2023/02/08 07:51:50;;;;;;;13.03;7.50;;;-0.30;99.90;;;;;;6119854;23;20879;-69
2023/02/08 07:54:17;;;;;;;12.27;8.13;;;-0.30;99.90;;;;;;6119803;23;20454;-69
2023/02/08 07:56:44;;;;;;;11.33;9.20;;;-0.30;99.90;;;;;;6121656;23;20553;-69
2023/02/08 07:59:11;;;;;;;11.93;7.00;;;-0.10;99.90;;;;;;6118042;23;20411;-69
2023/02/08 08:01:38;;;;;;;15.67;8.07;;;0.10;99.90;;;;;;6114498;23;20413;-70
2023/02/08 08:04:05;;;;;;;12.37;8.40;;;0.20;99.90;;;;;;6120153;23;20504;-70
2023/02/08 08:06:34;;;;;;;13.70;7.13;;;0.20;99.90;;;;;;6069359;23;20410;-70
2023/02/08 08:09:00;;;;;;;18.73;7.13;;;0.20;99.90;;;;;;6118770;23;20495;-68
2023/02/08 08:11:28;;;;;;;8.80;7.77;;;0.10;99.90;;;;;;6120209;23;20443;-70
2023/02/08 08:13:54;;;;;;;11.63;8.20;;;0.20;99.90;;;;;;6122557;23;20426;-69
2023/02/08 08:16:22;;;;;;;11.27;7.37;;;0.30;99.90;;;;;;6123000;23;20425;-70
2023/02/08 08:18:49;;;;;;;9.43;6.50;;;0.40;99.90;;;;;;6119638;23;20448;-70
2023/02/08 08:21:16;;;;;;;12.90;7.80;;;0.60;99.90;;;;;;6119925;23;20641;-70
2023/02/08 08:23:45;;;;;;;13.20;9.23;;;0.70;99.90;;;;;;6122637;23;20782;-70
2023/02/08 08:26:14;;;;;;;17.47;8.10;;;0.90;99.90;;;;;;6094746;23;20476;-70
2023/02/08 08:28:42;;;;;;;16.07;7.17;;;1.10;99.90;;;;;;6122701;23;20420;-70
2023/02/08 08:31:10;;;;;;;11.53;7.87;;;1.30;99.90;;;;;;6122401;23;20431;-71
2023/02/08 08:33:37;;;;;;;13.70;6.50;;;1.80;99.90;;;;;;6122922;23;20374;-70
2023/02/08 08:36:05;;;;;;;16.60;7.37;;;2.60;99.90;;;;;;6122253;23;20421;-71
2023/02/08 08:38:32;;;;;;;7.43;6.23;;;3.20;99.90;;;;;;6092644;23;20692;-70
2023/02/08 08:41:01;;;;;;;11.13;7.03;;;4.30;99.90;;;;;;6119542;23;20409;-71
2023/02/08 08:43:28;;;;;;;13.73;6.50;;;5.10;99.90;;;;;;6123581;23;20385;-71
2023/02/08 08:45:56;;;;;;;8.27;6.17;;;5.10;99.90;;;;;;6120426;23;20417;-72
2023/02/08 08:48:24;;;;;;;14.70;5.53;;;4.90;99.90;;;;;;6119102;23;20473;-71
2023/02/08 08:50:53;;;;;;;12.60;6.87;;;5.10;99.90;;;;;;6122025;23;20405;-71
2023/02/08 08:53:24;;;;;;;13.30;6.37;;;5.00;99.90;;;;;;6122391;23;20411;-70
2023/02/08 08:55:52;;;;;;;18.23;9.60;;;4.70;99.90;;;;;;6122735;23;20814;-70
2023/02/08 08:58:20;;;;;;;11.83;7.27;;;4.40;99.90;;;;;;6123113;23;20443;-70
2023/02/08 09:00:47;;;;;;;8.87;6.30;;;4.30;99.90;;;;;;6122878;23;20408;-71
2023/02/08 09:03:16;;;;;;;16.13;6.23;;;4.60;99.90;;;;;;6123673;23;20874;-70
2023/02/08 09:05:43;;;;;;;8.23;6.70;;;5.10;99.90;;;;;;6123322;23;21136;-71
2023/02/08 09:08:12;;;;;;;12.97;7.97;;;5.50;99.90;;;;;;6123286;23;20455;-70
2023/02/08 09:10:39;;;;;;;10.77;6.43;;;6.50;99.90;;;;;;6122388;23;20477;-71
2023/02/08 09:13:06;;;;;;;11.00;6.67;;;7.70;99.90;;;;;;6121772;23;20438;-71
2023/02/08 09:15:38;;;;;;;9.73;6.93;;;9.00;99.90;;;;;;6121013;23;20449;-71
2023/02/08 09:18:05;;;;;;;8.97;7.60;;;10.00;99.90;;;;;;6118845;23;20459;-71
2023/02/08 09:20:32;;;;;;;7.90;6.47;;;10.50;99.50;;;;;;6120549;23;20407;-70
2023/02/08 09:22:59;;;;;;;17.07;9.53;;;9.90;98.40;;;;;;6120712;23;20917;-71
2023/02/08 09:25:27;;;;;;;13.03;8.30;;;9.30;98.80;;;;;;6121975;23;20446;-70
2023/02/08 09:27:55;;;;;;;9.07;6.13;;;8.70;99.60;;;;;;6122906;23;20641;-71
2023/02/08 09:30:23;;;;;;;9.57;7.93;;;8.10;99.80;;;;;;6121817;23;20486;-70
2023/02/08 09:32:54;;;;;;;10.23;7.20;;;7.40;99.90;;;;;;6123213;23;20434;-70
2023/02/08 09:35:21;;;;;;;7.83;5.50;;;7.10;99.90;;;;;;6120836;23;20493;-72
2023/02/08 09:37:53;;;;;;;11.50;6.50;;;7.50;99.90;;;;;;6121585;23;20446;-71
2023/02/08 09:40:25;;;;;;;13.73;6.07;;;8.20;99.90;;;;;;6121416;23;20366;-70
2023/02/08 09:43:02;;;;;;;11.47;5.97;;;9.50;99.40;;;;;;6123927;23;20435;-70
2023/02/08 09:45:43;;;;;;;11.13;8.10;;;10.80;96.20;;;;;;6117582;23;20422;-70
2023/02/08 09:48:19;;;;;;;11.20;7.20;;;12.10;94.20;;;;;;6122264;23;20478;-70
2023/02/08 09:50:51;;;;;;;14.50;9.40;;;12.80;93.00;;;;;;6119931;23;20477;-69
2023/02/08 09:53:22;;;;;;;12.20;8.40;;;13.00;91.10;;;;;;6118560;23;20480;-70
2023/02/08 09:55:53;;;;;;;16.13;7.10;;;13.10;89.40;;;;;;6120242;23;20417;-70
2023/02/08 09:58:26;;;;;;;11.93;6.70;;;12.40;85.80;;;;;;6121287;23;20431;-71
2023/02/08 10:00:55;;;;;;;9.07;5.57;;;11.80;82.50;;;;;;6122453;23;20438;-71
2023/02/08 10:03:31;;;;;;;8.63;5.50;;;11.80;80.90;;;;;;6121841;23;21002;-71
2023/02/08 10:05:59;;;;;;;9.67;6.83;;;12.70;81.40;;;;;;6117868;23;20493;-71
2023/02/08 10:08:28;;;;;;;9.77;6.33;;;13.70;77.70;;;;;;6122043;23;20403;-69
2023/02/08 10:10:58;;;;;;;9.40;6.30;;;14.20;73.00;;;;;;6119492;23;20431;-68
2023/02/08 10:13:44;;;;;;;19.43;7.70;;;13.90;72.90;;;;;;6118203;23;20815;-68
2023/02/08 10:16:26;;;;;;;13.17;7.40;;;14.70;74.10;;;;;;6121909;23;20418;-70
2023/02/08 10:19:03;;;;;;;13.73;7.43;;;15.50;72.50;;;;;;6120841;23;20975;-70
2023/02/08 10:21:46;;;;;;;10.73;7.10;;;16.10;69.00;;;;;;6121766;23;20431;-70
2023/02/08 10:24:27;;;;;;;8.47;6.03;;;16.20;64.50;;;;;;6121410;23;20422;-70
2023/02/08 10:27:03;;;;;;;11.90;7.90;;;16.20;63.20;;;;;;6118986;23;20414;-71
2023/02/08 10:29:55;;;;;;;13.77;7.83;;;16.30;59.10;;;;;;6115557;23;20383;-70
2023/02/08 10:32:36;;;;;;;14.23;7.00;;;17.00;60.20;;;;;;6120145;23;20510;-70
2023/02/08 10:35:09;;;;;;;12.53;7.33;;;17.60;58.00;;;;;;6120531;23;20410;-70
2023/02/08 10:37:40;;;;;;;8.20;6.30;;;16.90;57.60;;;;;;6121696;23;20433;-70
2023/02/08 10:40:24;;;;;;;7.53;6.83;;;17.90;55.80;;;;;;6119750;23;20717;-71
2023/02/08 10:42:58;;;;;;;11.30;6.53;;;17.80;54.80;;;;;;6068536;23;20436;-70
2023/02/08 10:45:31;;;;;;;7.80;6.10;;;18.10;54.30;;;;;;6120394;23;20745;-70
2023/02/08 10:48:05;;;;;;;9.40;6.77;;;18.20;54.60;;;;;;6120214;23;20395;-70
2023/02/08 10:50:37;;;;;;;8.03;5.47;;;18.20;53.70;;;;;;6120874;23;20947;-70
2023/02/08 10:53:04;;;;;;;11.57;7.30;;;18.80;53.50;;;;;;6121117;23;20741;-69
2023/02/08 10:55:34;;;;;;;8.03;5.43;;;18.60;53.80;;;;;;6121721;23;20475;-69
2023/02/08 10:58:04;;;;;;;13.03;7.27;;;18.70;51.40;;;;;;6121804;23;20443;-70
2023/02/08 11:00:36;;;;;;;6.57;5.97;;;18.00;50.30;;;;;;6117445;23;20429;-69
2023/02/08 11:03:15;;;;;;;12.50;6.60;;;18.30;51.40;;;;;;6122268;23;20415;-70
2023/02/08 11:05:45;;;;;;;9.80;5.67;;;19.10;50.90;;;;;;6122696;23;20419;-70
2023/02/08 11:08:16;;;;;;;13.77;5.30;;;19.20;47.80;;;;;;6071217;23;20498;-69
2023/02/08 11:10:46;;;;;;;5.43;4.53;;;20.10;44.80;;;;;;6122083;23;20395;-70
2023/02/08 11:13:19;;;;;;;8.17;5.33;;;19.60;43.40;;;;;;6119666;23;20415;-69
2023/02/08 11:15:48;;;;;;;6.90;4.53;;;19.90;44.00;;;;;;6120479;23;20418;-69
2023/02/08 11:18:21;;;;;;;10.93;4.83;;;20.00;43.70;;;;;;6089340;23;20772;-70
2023/02/08 11:20:51;;;;;;;8.80;5.40;;;19.80;40.80;;;;;;6121264;23;20511;-71
2023/02/08 11:23:25;;;;;;;8.43;4.97;;;19.00;41.50;;;;;;6121361;23;20429;-70
2023/02/08 11:25:52;;;;;;;8.53;4.60;;;18.80;42.50;;;;;;6120429;23;20430;-69
2023/02/08 11:28:25;;;;;;;6.83;5.00;;;19.10;42.30;;;;;;6119131;23;20482;-69
2023/02/08 11:30:57;;;;;;;6.20;4.80;;;19.70;41.00;;;;;;6120573;23;20513;-70
2023/02/08 11:33:26;;;;;;;7.03;5.10;;;19.70;41.60;;;;;;6120085;23;20411;-69
2023/02/08 11:35:59;;;;;;;8.30;4.97;;;19.40;40.50;;;;;;6118545;23;20411;-68
2023/02/08 11:38:28;;;;;;;6.33;3.63;;;19.60;42.00;;;;;;6122049;23;20427;-70
2023/02/08 11:40:57;;;;;;;6.73;4.57;;;19.90;36.70;;;;;;6120947;23;20446;-70
2023/02/08 11:43:28;;;;;;;4.17;3.60;;;19.50;38.40;;;;;;6120499;23;20446;-70
2023/02/08 11:45:56;;;;;;;4.63;3.20;;;20.20;38.20;;;;;;6120104;23;20427;-70
2023/02/08 11:48:35;;;;;;;3.30;3.00;;;21.10;36.40;;;;;;6119913;23;20824;-70
2023/02/08 11:51:04;;;;;;;4.50;3.13;;;21.50;34.80;;;;;;6120506;23;20506;-69
2023/02/08 11:53:35;;;;;;;4.30;3.73;;;21.40;34.80;;;;;;6119979;23;20410;-69
2023/02/08 11:56:05;;;;;;;5.63;3.67;;;21.40;31.70;;;;;;6115581;23;20859;-69
2023/02/08 11:58:32;;;;;;;7.20;5.00;;;20.50;32.00;;;;;;6119939;23;20454;-69
2023/02/08 12:01:01;;;;;;;8.67;4.10;;;20.30;34.50;;;;;;6119914;23;20947;-70
2023/02/08 12:03:33;;;;;;;8.17;3.53;;;20.00;35.20;;;;;;6121170;23;20411;-71
2023/02/08 12:06:17;;;;;;;7.90;5.10;;;20.00;34.60;;;;;;6120490;23;20418;-69
2023/02/08 12:08:55;;;;;;;6.83;3.90;;;20.90;34.80;;;;;;6119713;23;20450;-70
2023/02/08 12:11:29;;;;;;;4.03;3.57;;;21.00;33.60;;;;;;6118727;23;20740;-70
2023/02/08 12:14:12;;;;;;;4.87;3.77;;;21.20;32.70;;;;;;6120734;23;20478;-70
2023/02/08 12:16:53;;;;;;;3.83;3.50;;;21.30;32.60;;;;;;6119094;23;20851;-70
2023/02/08 12:19:49;;;;;;;13.67;5.20;;;21.30;33.60;;;;;;6121627;23;20511;-71
2023/02/08 12:22:25;;;;;;;5.27;4.23;;;22.00;35.60;;;;;;6120733;23;20515;-70
2023/02/08 12:25:04;;;;;;;4.13;3.63;;;22.30;34.50;;;;;;6117946;23;20731;-70
2023/02/08 12:27:41;;;;;;;4.03;3.27;;;21.80;33.50;;;;;;6118642;23;20401;-71
2023/02/08 12:30:20;;;;;;;5.60;4.27;;;21.80;33.20;;;;;;6119778;23;20426;-70
2023/02/08 12:33:03;;;;;;;3.07;2.63;;;22.20;33.30;;;;;;6119597;23;20427;-70
2023/02/08 12:35:55;;;;;;;7.57;4.07;;;22.00;31.00;;;;;;6120437;23;20418;-70
2023/02/08 12:41:26;;;;;;;5.87;3.40;;;21.80;32.40;;;;;;6119402;23;20765;-68
2023/02/08 12:44:02;;;;;;;3.90;3.50;;;21.90;34.10;;;;;;6119776;23;20902;-68
2023/02/08 12:46:55;;;;;;;5.50;4.60;;;21.90;32.80;;;;;;6117492;23;20723;-69
2023/02/08 12:49:52;;;;;;;5.67;4.27;;;21.90;32.50;;;;;;6120989;23;20506;-69
2023/02/08 12:52:27;;;;;;;4.90;3.67;;;21.70;32.50;;;;;;6097494;23;20487;-69
2023/02/08 12:55:01;;;;;;;5.30;3.47;;;21.70;33.20;;;;;;6120645;23;20910;-70
2023/02/08 12:57:30;;;;;;;5.20;4.10;;;22.10;32.90;;;;;;6125405;23;20402;-69
2023/02/08 13:00:02;;;;;;;4.20;3.23;;;22.50;33.50;;;;;;6121773;23;20991;-69
2023/02/08 13:02:34;;;;;;;6.87;4.50;;;23.30;32.80;;;;;;6121542;23;20459;-70
2023/02/08 13:05:06;;;;;;;4.87;4.37;;;23.50;32.00;;;;;;6118895;23;20477;-70
2023/02/08 13:07:38;;;;;;;6.53;3.50;;;23.00;32.60;;;;;;6123285;23;20426;-69